sensor_id;sensor_type;location;lat;lon;timestamp;P1;durP1;ratioP1;P2;durP2;ratioP2
11827;SDS011;5971;49.646;8.568;2023-03-04T00:00:37;6.30;;;3.97;;
11827;SDS011;5971;49.646;8.568;2023-03-04T00:03:43;5.57;;;4.63;;
11827;SDS011;5971;49.646;8.568;2023-03-04T00:06:44;15.10;;;5.90;;
11827;SDS011;5971;49.646;8.568;2023-03-04T00:09:45;14.05;;;5.07;;
11827;SDS011;5971;49.646;8.568;2023-03-04T00:12:47;8.00;;;4.53;;
11827;SDS011;5971;49.646;8.568;2023-03-04T00:15:48;6.95;;;3.92;;
11827;SDS011;5971;49.646;8.568;2023-03-04T00:18:49;8.02;;;4.07;;
11827;SDS011;5971;49.646;8.568;2023-03-04T00:21:51;6.75;;;4.72;;
11827;SDS011;5971;49.646;8.568;2023-03-04T00:24:52;8.77;;;3.90;;
11827;SDS011;5971;49.646;8.568;2023-03-04T00:27:53;5.60;;;4.53;;
11827;SDS011;5971;49.646;8.568;2023-03-04T00:30:55;10.43;;;5.47;;
11827;SDS011;5971;49.646;8.568;2023-03-04T00:33:56;11.98;;;4.60;;
11827;SDS011;5971;49.646;8.568;2023-03-04T00:36:57;6.65;;;5.18;;
11827;SDS011;5971;49.646;8.568;2023-03-04T00:40:01;10.65;;;6.10;;
11827;SDS011;5971;49.646;8.568;2023-03-04T00:43:02;9.15;;;5.13;;
11827;SDS011;5971;49.646;8.568;2023-03-04T00:46:04;10.85;;;5.45;;
11827;SDS011;5971;49.646;8.568;2023-03-04T00:49:05;10.32;;;4.97;;
11827;SDS011;5971;49.646;8.568;2023-03-04T00:52:06;11.88;;;6.65;;
11827;SDS011;5971;49.646;8.568;2023-03-04T00:55:08;10.45;;;5.15;;
11827;SDS011;5971;49.646;8.568;2023-03-04T00:58:09;10.02;;;6.45;;
11827;SDS011;5971;49.646;8.568;2023-03-04T01:01:11;7.18;;;3.78;;
11827;SDS011;5971;49.646;8.568;2023-03-04T01:04:12;8.35;;;5.05;;
11827;SDS011;5971;49.646;8.568;2023-03-04T01:07:13;7.13;;;3.05;;
11827;SDS011;5971;49.646;8.568;2023-03-04T01:10:15;10.00;;;4.45;;
11827;SDS011;5971;49.646;8.568;2023-03-04T01:13:16;5.32;;;4.20;;
11827;SDS011;5971;49.646;8.568;2023-03-04T01:16:17;13.93;;;5.95;;
11827;SDS011;5971;49.646;8.568;2023-03-04T01:19:19;15.52;;;5.95;;
11827;SDS011;5971;49.646;8.568;2023-03-04T01:22:20;6.07;;;3.83;;
11827;SDS011;5971;49.646;8.568;2023-03-04T01:25:21;11.18;;;5.20;;
11827;SDS011;5971;49.646;8.568;2023-03-04T01:28:23;10.80;;;6.53;;
11827;SDS011;5971;49.646;8.568;2023-03-04T01:31:24;12.38;;;6.45;;
11827;SDS011;5971;49.646;8.568;2023-03-04T01:34:25;8.30;;;5.15;;
11827;SDS011;5971;49.646;8.568;2023-03-04T01:37:27;6.05;;;4.40;;
11827;SDS011;5971;49.646;8.568;2023-03-04T01:40:29;10.85;;;4.38;;
11827;SDS011;5971;49.646;8.568;2023-03-04T01:43:30;8.18;;;4.55;;
11827;SDS011;5971;49.646;8.568;2023-03-04T01:46:32;9.57;;;3.40;;
11827;SDS011;5971;49.646;8.568;2023-03-04T01:49:33;7.32;;;4.13;;
11827;SDS011;5971;49.646;8.568;2023-03-04T01:52:35;11.40;;;7.05;;
11827;SDS011;5971;49.646;8.568;2023-03-04T01:55:36;7.05;;;3.08;;
11827;SDS011;5971;49.646;8.568;2023-03-04T01:58:38;17.08;;;5.85;;
11827;SDS011;5971;49.646;8.568;2023-03-04T02:01:40;7.65;;;4.07;;
11827;SDS011;5971;49.646;8.568;2023-03-04T02:04:43;11.52;;;4.35;;
11827;SDS011;5971;49.646;8.568;2023-03-04T02:07:44;11.13;;;4.90;;
11827;SDS011;5971;49.646;8.568;2023-03-04T02:10:45;5.97;;;4.88;;
11827;SDS011;5971;49.646;8.568;2023-03-04T02:13:47;8.98;;;6.30;;
11827;SDS011;5971;49.646;8.568;2023-03-04T02:16:48;6.70;;;5.32;;
11827;SDS011;5971;49.646;8.568;2023-03-04T02:19:53;7.60;;;4.22;;
11827;SDS011;5971;49.646;8.568;2023-03-04T02:23:04;14.65;;;5.93;;
11827;SDS011;5971;49.646;8.568;2023-03-04T02:29:18;12.25;;;5.28;;
11827;SDS011;5971;49.646;8.568;2023-03-04T02:32:19;6.75;;;4.07;;
11827;SDS011;5971;49.646;8.568;2023-03-04T02:35:21;10.85;;;5.38;;
11827;SDS011;5971;49.646;8.568;2023-03-04T02:38:22;10.38;;;4.65;;
11827;SDS011;5971;49.646;8.568;2023-03-04T02:41:24;20.55;;;7.68;;
11827;SDS011;5971;49.646;8.568;2023-03-04T02:44:30;9.63;;;5.05;;
11827;SDS011;5971;49.646;8.568;2023-03-04T02:47:31;9.07;;;3.92;;
11827;SDS011;5971;49.646;8.568;2023-03-04T02:50:34;9.77;;;5.43;;
11827;SDS011;5971;49.646;8.568;2023-03-04T02:53:36;9.25;;;5.03;;
11827;SDS011;5971;49.646;8.568;2023-03-04T02:56:38;8.68;;;4.78;;
11827;SDS011;5971;49.646;8.568;2023-03-04T02:59:39;9.95;;;5.57;;
11827;SDS011;5971;49.646;8.568;2023-03-04T03:02:41;8.80;;;5.50;;
11827;SDS011;5971;49.646;8.568;2023-03-04T03:05:42;11.23;;;6.22;;
11827;SDS011;5971;49.646;8.568;2023-03-04T03:08:44;12.35;;;5.35;;
11827;SDS011;5971;49.646;8.568;2023-03-04T03:11:45;12.43;;;4.97;;
11827;SDS011;5971;49.646;8.568;2023-03-04T03:14:46;6.57;;;4.05;;
11827;SDS011;5971;49.646;8.568;2023-03-04T03:17:47;11.20;;;6.38;;
11827;SDS011;5971;49.646;8.568;2023-03-04T03:20:49;10.80;;;5.70;;
11827;SDS011;5971;49.646;8.568;2023-03-04T03:23:50;11.15;;;6.10;;
11827;SDS011;5971;49.646;8.568;2023-03-04T03:26:52;17.45;;;4.25;;
11827;SDS011;5971;49.646;8.568;2023-03-04T03:29:53;9.32;;;4.80;;
11827;SDS011;5971;49.646;8.568;2023-03-04T03:32:54;8.32;;;5.47;;
11827;SDS011;5971;49.646;8.568;2023-03-04T03:35:56;14.68;;;6.63;;
11827;SDS011;5971;49.646;8.568;2023-03-04T03:38:57;7.03;;;5.72;;
11827;SDS011;5971;49.646;8.568;2023-03-04T03:41:59;11.77;;;7.05;;
11827;SDS011;5971;49.646;8.568;2023-03-04T03:45:00;19.02;;;6.57;;
11827;SDS011;5971;49.646;8.568;2023-03-04T03:48:01;10.50;;;5.65;;
11827;SDS011;5971;49.646;8.568;2023-03-04T03:51:03;13.05;;;4.57;;
11827;SDS011;5971;49.646;8.568;2023-03-04T03:54:04;10.98;;;6.22;;
11827;SDS011;5971;49.646;8.568;2023-03-04T03:57:05;13.68;;;6.05;;
11827;SDS011;5971;49.646;8.568;2023-03-04T04:00:07;7.05;;;5.32;;
11827;SDS011;5971;49.646;8.568;2023-03-04T04:03:10;7.72;;;5.53;;
11827;SDS011;5971;49.646;8.568;2023-03-04T04:06:13;6.68;;;5.68;;
11827;SDS011;5971;49.646;8.568;2023-03-04T04:09:15;6.78;;;4.60;;
11827;SDS011;5971;49.646;8.568;2023-03-04T04:12:16;6.95;;;5.47;;
11827;SDS011;5971;49.646;8.568;2023-03-04T04:15:18;10.35;;;5.80;;
11827;SDS011;5971;49.646;8.568;2023-03-04T04:18:19;16.20;;;6.15;;
11827;SDS011;5971;49.646;8.568;2023-03-04T04:21:20;8.85;;;3.35;;
11827;SDS011;5971;49.646;8.568;2023-03-04T04:24:22;9.48;;;5.47;;
11827;SDS011;5971;49.646;8.568;2023-03-04T04:27:23;9.30;;;6.32;;
11827;SDS011;5971;49.646;8.568;2023-03-04T04:30:24;9.85;;;6.15;;
11827;SDS011;5971;49.646;8.568;2023-03-04T04:33:26;10.80;;;5.90;;
11827;SDS011;5971;49.646;8.568;2023-03-04T04:36:27;6.72;;;4.72;;
11827;SDS011;5971;49.646;8.568;2023-03-04T04:39:28;8.80;;;5.25;;
11827;SDS011;5971;49.646;8.568;2023-03-04T04:42:30;5.93;;;4.97;;
11827;SDS011;5971;49.646;8.568;2023-03-04T04:45:31;10.70;;;5.82;;
11827;SDS011;5971;49.646;8.568;2023-03-04T04:48:32;10.32;;;5.97;;
11827;SDS011;5971;49.646;8.568;2023-03-04T04:51:34;7.72;;;4.47;;
11827;SDS011;5971;49.646;8.568;2023-03-04T04:54:36;12.15;;;6.40;;
11827;SDS011;5971;49.646;8.568;2023-03-04T04:57:37;10.90;;;4.82;;
11827;SDS011;5971;49.646;8.568;2023-03-04T05:00:39;13.13;;;5.63;;
11827;SDS011;5971;49.646;8.568;2023-03-04T05:03:40;8.00;;;5.53;;
11827;SDS011;5971;49.646;8.568;2023-03-04T05:06:41;9.93;;;6.20;;
11827;SDS011;5971;49.646;8.568;2023-03-04T05:09:43;7.82;;;5.13;;
11827;SDS011;5971;49.646;8.568;2023-03-04T05:12:44;17.88;;;6.63;;
11827;SDS011;5971;49.646;8.568;2023-03-04T05:15:46;10.38;;;4.75;;
11827;SDS011;5971;49.646;8.568;2023-03-04T05:18:47;10.43;;;5.95;;
11827;SDS011;5971;49.646;8.568;2023-03-04T05:21:48;11.88;;;7.75;;
11827;SDS011;5971;49.646;8.568;2023-03-04T05:24:49;7.60;;;5.32;;
11827;SDS011;5971;49.646;8.568;2023-03-04T05:27:51;11.15;;;5.38;;
11827;SDS011;5971;49.646;8.568;2023-03-04T05:30:52;11.15;;;6.97;;
11827;SDS011;5971;49.646;8.568;2023-03-04T05:33:54;15.27;;;5.95;;
11827;SDS011;5971;49.646;8.568;2023-03-04T05:36:55;11.00;;;4.60;;
11827;SDS011;5971;49.646;8.568;2023-03-04T05:39:56;10.65;;;6.10;;
11827;SDS011;5971;49.646;8.568;2023-03-04T05:42:58;6.05;;;5.10;;
11827;SDS011;5971;49.646;8.568;2023-03-04T05:45:59;18.92;;;9.40;;
11827;SDS011;5971;49.646;8.568;2023-03-04T05:49:01;13.30;;;6.47;;
11827;SDS011;5971;49.646;8.568;2023-03-04T05:52:02;16.60;;;9.05;;
11827;SDS011;5971;49.646;8.568;2023-03-04T05:55:04;14.02;;;6.07;;
11827;SDS011;5971;49.646;8.568;2023-03-04T05:58:05;20.98;;;6.55;;
11827;SDS011;5971;49.646;8.568;2023-03-04T06:01:06;11.13;;;6.18;;
11827;SDS011;5971;49.646;8.568;2023-03-04T06:04:08;10.77;;;5.43;;
11827;SDS011;5971;49.646;8.568;2023-03-04T06:07:09;14.52;;;7.10;;
11827;SDS011;5971;49.646;8.568;2023-03-04T06:10:12;12.65;;;4.63;;
11827;SDS011;5971;49.646;8.568;2023-03-04T06:13:13;13.27;;;7.20;;
11827;SDS011;5971;49.646;8.568;2023-03-04T06:16:14;15.75;;;5.70;;
11827;SDS011;5971;49.646;8.568;2023-03-04T06:19:16;15.20;;;8.98;;
11827;SDS011;5971;49.646;8.568;2023-03-04T06:22:17;16.10;;;9.35;;
11827;SDS011;5971;49.646;8.568;2023-03-04T06:25:19;11.65;;;6.82;;
11827;SDS011;5971;49.646;8.568;2023-03-04T06:28:20;13.32;;;6.00;;
11827;SDS011;5971;49.646;8.568;2023-03-04T06:31:21;11.77;;;4.95;;
11827;SDS011;5971;49.646;8.568;2023-03-04T06:34:23;10.93;;;7.05;;
11827;SDS011;5971;49.646;8.568;2023-03-04T06:37:24;15.05;;;6.95;;
11827;SDS011;5971;49.646;8.568;2023-03-04T06:40:25;14.30;;;7.13;;
11827;SDS011;5971;49.646;8.568;2023-03-04T06:43:27;17.52;;;6.90;;
11827;SDS011;5971;49.646;8.568;2023-03-04T06:46:28;16.80;;;7.07;;
11827;SDS011;5971;49.646;8.568;2023-03-04T06:49:30;20.15;;;8.48;;
11827;SDS011;5971;49.646;8.568;2023-03-04T06:52:32;18.10;;;7.43;;
11827;SDS011;5971;49.646;8.568;2023-03-04T06:55:33;17.60;;;7.75;;
11827;SDS011;5971;49.646;8.568;2023-03-04T06:58:35;14.05;;;6.38;;
11827;SDS011;5971;49.646;8.568;2023-03-04T07:01:36;15.00;;;7.57;;
11827;SDS011;5971;49.646;8.568;2023-03-04T07:04:38;17.00;;;7.68;;
11827;SDS011;5971;49.646;8.568;2023-03-04T07:07:40;14.73;;;6.15;;
11827;SDS011;5971;49.646;8.568;2023-03-04T07:10:41;13.23;;;6.05;;
11827;SDS011;5971;49.646;8.568;2023-03-04T07:13:42;14.80;;;6.75;;
11827;SDS011;5971;49.646;8.568;2023-03-04T07:16:43;15.40;;;7.55;;
11827;SDS011;5971;49.646;8.568;2023-03-04T07:19:45;14.75;;;7.20;;
11827;SDS011;5971;49.646;8.568;2023-03-04T07:22:46;24.92;;;9.20;;
11827;SDS011;5971;49.646;8.568;2023-03-04T07:25:48;20.17;;;6.78;;
11827;SDS011;5971;49.646;8.568;2023-03-04T07:28:50;15.73;;;8.05;;
11827;SDS011;5971;49.646;8.568;2023-03-04T07:31:53;24.00;;;9.68;;
11827;SDS011;5971;49.646;8.568;2023-03-04T07:34:54;11.65;;;5.85;;
11827;SDS011;5971;49.646;8.568;2023-03-04T07:37:55;13.55;;;7.32;;
11827;SDS011;5971;49.646;8.568;2023-03-04T07:40:57;17.38;;;8.55;;
11827;SDS011;5971;49.646;8.568;2023-03-04T07:43:59;10.80;;;6.60;;
11827;SDS011;5971;49.646;8.568;2023-03-04T07:47:00;14.82;;;6.93;;
11827;SDS011;5971;49.646;8.568;2023-03-04T07:50:01;17.23;;;7.57;;
11827;SDS011;5971;49.646;8.568;2023-03-04T07:53:03;21.23;;;8.00;;
11827;SDS011;5971;49.646;8.568;2023-03-04T07:56:05;18.38;;;6.65;;
11827;SDS011;5971;49.646;8.568;2023-03-04T07:59:06;19.85;;;7.50;;
11827;SDS011;5971;49.646;8.568;2023-03-04T08:02:08;14.60;;;5.90;;
11827;SDS011;5971;49.646;8.568;2023-03-04T08:05:10;17.42;;;6.38;;
11827;SDS011;5971;49.646;8.568;2023-03-04T08:08:12;22.70;;;9.82;;
11827;SDS011;5971;49.646;8.568;2023-03-04T08:11:17;17.55;;;8.30;;
11827;SDS011;5971;49.646;8.568;2023-03-04T08:14:18;21.25;;;8.75;;
11827;SDS011;5971;49.646;8.568;2023-03-04T08:17:20;21.45;;;9.25;;
11827;SDS011;5971;49.646;8.568;2023-03-04T08:20:21;12.77;;;7.43;;
11827;SDS011;5971;49.646;8.568;2023-03-04T08:23:22;22.88;;;8.93;;
11827;SDS011;5971;49.646;8.568;2023-03-04T08:26:28;24.90;;;9.13;;
11827;SDS011;5971;49.646;8.568;2023-03-04T08:29:30;17.02;;;8.55;;
11827;SDS011;5971;49.646;8.568;2023-03-04T08:32:31;17.90;;;7.68;;
11827;SDS011;5971;49.646;8.568;2023-03-04T08:35:35;23.75;;;8.45;;
11827;SDS011;5971;49.646;8.568;2023-03-04T08:38:37;23.13;;;10.77;;
11827;SDS011;5971;49.646;8.568;2023-03-04T08:41:38;20.92;;;8.82;;
11827;SDS011;5971;49.646;8.568;2023-03-04T08:44:40;25.00;;;7.60;;
11827;SDS011;5971;49.646;8.568;2023-03-04T08:47:41;16.90;;;8.88;;
11827;SDS011;5971;49.646;8.568;2023-03-04T08:50:43;20.67;;;8.68;;
11827;SDS011;5971;49.646;8.568;2023-03-04T08:53:45;25.48;;;11.27;;
11827;SDS011;5971;49.646;8.568;2023-03-04T08:56:46;20.27;;;10.30;;
11827;SDS011;5971;49.646;8.568;2023-03-04T08:59:47;31.83;;;10.75;;
11827;SDS011;5971;49.646;8.568;2023-03-04T09:02:49;24.60;;;11.00;;
11827;SDS011;5971;49.646;8.568;2023-03-04T09:05:50;24.20;;;9.27;;
11827;SDS011;5971;49.646;8.568;2023-03-04T09:08:52;24.25;;;10.55;;
11827;SDS011;5971;49.646;8.568;2023-03-04T09:11:53;21.08;;;9.65;;
11827;SDS011;5971;49.646;8.568;2023-03-04T09:14:54;27.83;;;11.65;;
11827;SDS011;5971;49.646;8.568;2023-03-04T09:18:11;26.45;;;9.63;;
11827;SDS011;5971;49.646;8.568;2023-03-04T09:21:12;30.35;;;11.85;;
11827;SDS011;5971;49.646;8.568;2023-03-04T09:24:14;21.17;;;9.32;;
11827;SDS011;5971;49.646;8.568;2023-03-04T09:27:15;19.42;;;8.35;;
11827;SDS011;5971;49.646;8.568;2023-03-04T09:30:17;26.35;;;11.13;;
11827;SDS011;5971;49.646;8.568;2023-03-04T09:33:18;26.25;;;9.07;;
11827;SDS011;5971;49.646;8.568;2023-03-04T09:36:20;28.30;;;10.07;;
11827;SDS011;5971;49.646;8.568;2023-03-04T09:39:21;20.63;;;7.70;;
11827;SDS011;5971;49.646;8.568;2023-03-04T09:42:27;25.48;;;12.15;;
11827;SDS011;5971;49.646;8.568;2023-03-04T09:45:34;24.63;;;9.40;;
11827;SDS011;5971;49.646;8.568;2023-03-04T09:48:50;25.13;;;10.23;;
11827;SDS011;5971;49.646;8.568;2023-03-04T09:52:03;24.50;;;11.73;;
11827;SDS011;5971;49.646;8.568;2023-03-04T09:55:11;30.58;;;11.25;;
11827;SDS011;5971;49.646;8.568;2023-03-04T09:58:30;25.55;;;10.20;;
11827;SDS011;5971;49.646;8.568;2023-03-04T10:04:48;29.20;;;9.15;;
11827;SDS011;5971;49.646;8.568;2023-03-04T10:07:55;21.15;;;8.65;;
11827;SDS011;5971;49.646;8.568;2023-03-04T10:10:57;18.30;;;7.88;;
11827;SDS011;5971;49.646;8.568;2023-03-04T10:17:18;22.27;;;8.82;;
11827;SDS011;5971;49.646;8.568;2023-03-04T10:20:23;28.80;;;8.02;;
11827;SDS011;5971;49.646;8.568;2023-03-04T10:23:25;25.27;;;10.10;;
11827;SDS011;5971;49.646;8.568;2023-03-04T10:26:28;19.58;;;8.23;;
11827;SDS011;5971;49.646;8.568;2023-03-04T10:29:29;24.55;;;8.02;;
11827;SDS011;5971;49.646;8.568;2023-03-04T10:32:32;23.80;;;8.75;;
11827;SDS011;5971;49.646;8.568;2023-03-04T10:35:33;24.73;;;9.02;;
11827;SDS011;5971;49.646;8.568;2023-03-04T10:38:38;17.05;;;8.32;;
11827;SDS011;5971;49.646;8.568;2023-03-04T10:41:43;19.80;;;8.50;;
11827;SDS011;5971;49.646;8.568;2023-03-04T10:44:56;21.70;;;9.90;;
11827;SDS011;5971;49.646;8.568;2023-03-04T10:47:57;21.80;;;8.75;;
11827;SDS011;5971;49.646;8.568;2023-03-04T10:51:18;19.75;;;8.65;;
11827;SDS011;5971;49.646;8.568;2023-03-04T10:54:27;20.80;;;8.07;;
11827;SDS011;5971;49.646;8.568;2023-03-04T11:00:37;19.95;;;9.82;;
11827;SDS011;5971;49.646;8.568;2023-03-04T11:03:38;18.50;;;10.02;;
11827;SDS011;5971;49.646;8.568;2023-03-04T11:06:46;19.60;;;9.30;;
11827;SDS011;5971;49.646;8.568;2023-03-04T11:09:48;17.77;;;8.40;;
11827;SDS011;5971;49.646;8.568;2023-03-04T11:16:03;22.25;;;7.20;;
11827;SDS011;5971;49.646;8.568;2023-03-04T11:19:10;17.17;;;6.50;;
11827;SDS011;5971;49.646;8.568;2023-03-04T11:22:15;16.98;;;8.27;;
11827;SDS011;5971;49.646;8.568;2023-03-04T11:25:22;19.38;;;7.28;;
11827;SDS011;5971;49.646;8.568;2023-03-04T11:28:28;15.18;;;6.15;;
11827;SDS011;5971;49.646;8.568;2023-03-04T11:31:48;14.05;;;6.07;;
11827;SDS011;5971;49.646;8.568;2023-03-04T11:34:52;15.18;;;6.57;;
11827;SDS011;5971;49.646;8.568;2023-03-04T11:38:07;15.07;;;7.95;;
11827;SDS011;5971;49.646;8.568;2023-03-04T11:41:12;18.63;;;6.78;;
11827;SDS011;5971;49.646;8.568;2023-03-04T11:44:14;19.05;;;6.63;;
11827;SDS011;5971;49.646;8.568;2023-03-04T11:47:24;18.98;;;6.35;;
11827;SDS011;5971;49.646;8.568;2023-03-04T11:50:50;15.75;;;6.32;;
11827;SDS011;5971;49.646;8.568;2023-03-04T11:57:27;12.48;;;5.72;;
11827;SDS011;5971;49.646;8.568;2023-03-04T12:00:37;17.23;;;7.95;;
11827;SDS011;5971;49.646;8.568;2023-03-04T12:13:19;16.60;;;5.65;;
11827;SDS011;5971;49.646;8.568;2023-03-04T12:16:50;20.83;;;5.78;;
11827;SDS011;5971;49.646;8.568;2023-03-04T12:22:59;19.52;;;6.97;;
11827;SDS011;5971;49.646;8.568;2023-03-04T12:26:20;11.52;;;4.15;;
11827;SDS011;5971;49.646;8.568;2023-03-04T12:36:06;13.32;;;5.78;;
11827;SDS011;5971;49.646;8.568;2023-03-04T12:45:23;18.88;;;8.82;;
11827;SDS011;5971;49.646;8.568;2023-03-04T12:48:31;11.30;;;5.32;;
11827;SDS011;5971;49.646;8.568;2023-03-04T12:51:35;15.65;;;7.25;;
11827;SDS011;5971;49.646;8.568;2023-03-04T12:54:48;15.02;;;5.22;;
11827;SDS011;5971;49.646;8.568;2023-03-04T12:57:50;12.82;;;6.82;;
11827;SDS011;5971;49.646;8.568;2023-03-04T13:04:23;14.68;;;7.18;;
11827;SDS011;5971;49.646;8.568;2023-03-04T13:10:33;11.05;;;5.07;;
11827;SDS011;5971;49.646;8.568;2023-03-04T13:13:39;16.88;;;7.40;;
11827;SDS011;5971;49.646;8.568;2023-03-04T13:16:41;18.65;;;8.05;;
11827;SDS011;5971;49.646;8.568;2023-03-04T13:19:50;9.20;;;5.13;;
11827;SDS011;5971;49.646;8.568;2023-03-04T13:23:00;12.02;;;5.20;;
11827;SDS011;5971;49.646;8.568;2023-03-04T13:32:10;14.43;;;6.65;;
11827;SDS011;5971;49.646;8.568;2023-03-04T13:38:36;18.73;;;6.78;;
11827;SDS011;5971;49.646;8.568;2023-03-04T13:41:48;16.00;;;6.38;;
11827;SDS011;5971;49.646;8.568;2023-03-04T13:47:51;15.43;;;6.70;;
11827;SDS011;5971;49.646;8.568;2023-03-04T13:50:52;15.05;;;5.95;;
11827;SDS011;5971;49.646;8.568;2023-03-04T14:00:02;13.45;;;5.72;;
11827;SDS011;5971;49.646;8.568;2023-03-04T14:03:40;9.45;;;3.97;;
11827;SDS011;5971;49.646;8.568;2023-03-04T14:06:34;14.02;;;4.25;;
11827;SDS011;5971;49.646;8.568;2023-03-04T14:09:35;12.90;;;4.78;;
11827;SDS011;5971;49.646;8.568;2023-03-04T14:12:40;10.48;;;4.25;;
11827;SDS011;5971;49.646;8.568;2023-03-04T14:15:43;9.27;;;4.35;;
11827;SDS011;5971;49.646;8.568;2023-03-04T14:18:57;12.25;;;5.05;;
11827;SDS011;5971;49.646;8.568;2023-03-04T14:21:59;10.63;;;4.82;;
11827;SDS011;5971;49.646;8.568;2023-03-04T14:31:03;10.43;;;5.05;;
11827;SDS011;5971;49.646;8.568;2023-03-04T14:34:05;10.48;;;4.97;;
11827;SDS011;5971;49.646;8.568;2023-03-04T14:37:23;14.27;;;5.90;;
11827;SDS011;5971;49.646;8.568;2023-03-04T14:40:27;12.75;;;5.75;;
11827;SDS011;5971;49.646;8.568;2023-03-04T14:43:29;10.88;;;4.07;;
11827;SDS011;5971;49.646;8.568;2023-03-04T14:46:35;11.55;;;4.20;;
11827;SDS011;5971;49.646;8.568;2023-03-04T14:49:40;9.60;;;3.72;;
11827;SDS011;5971;49.646;8.568;2023-03-04T14:52:42;13.60;;;5.57;;
11827;SDS011;5971;49.646;8.568;2023-03-04T14:56:00;9.63;;;3.65;;
11827;SDS011;5971;49.646;8.568;2023-03-04T14:59:02;13.27;;;5.20;;
11827;SDS011;5971;49.646;8.568;2023-03-04T15:02:17;14.90;;;5.47;;
11827;SDS011;5971;49.646;8.568;2023-03-04T15:05:19;11.77;;;5.13;;
11827;SDS011;5971;49.646;8.568;2023-03-04T15:08:27;8.85;;;4.45;;
11827;SDS011;5971;49.646;8.568;2023-03-04T15:14:47;10.90;;;6.03;;
11827;SDS011;5971;49.646;8.568;2023-03-04T15:17:59;8.45;;;4.55;;
11827;SDS011;5971;49.646;8.568;2023-03-04T15:21:05;10.73;;;4.55;;
11827;SDS011;5971;49.646;8.568;2023-03-04T15:24:25;9.15;;;3.97;;
11827;SDS011;5971;49.646;8.568;2023-03-04T15:27:27;8.85;;;4.25;;
11827;SDS011;5971;49.646;8.568;2023-03-04T15:30:30;11.02;;;4.70;;
11827;SDS011;5971;49.646;8.568;2023-03-04T15:33:31;9.27;;;3.53;;
11827;SDS011;5971;49.646;8.568;2023-03-04T15:36:32;10.57;;;5.10;;
11827;SDS011;5971;49.646;8.568;2023-03-04T15:39:34;9.27;;;3.83;;
11827;SDS011;5971;49.646;8.568;2023-03-04T15:42:35;9.63;;;4.25;;
11827;SDS011;5971;49.646;8.568;2023-03-04T15:45:36;8.38;;;3.95;;
11827;SDS011;5971;49.646;8.568;2023-03-04T15:48:39;6.80;;;3.25;;
11827;SDS011;5971;49.646;8.568;2023-03-04T15:51:40;8.85;;;3.65;;
11827;SDS011;5971;49.646;8.568;2023-03-04T15:54:42;6.40;;;3.42;;
11827;SDS011;5971;49.646;8.568;2023-03-04T15:57:44;10.68;;;4.38;;
11827;SDS011;5971;49.646;8.568;2023-03-04T16:00:46;12.68;;;4.20;;
11827;SDS011;5971;49.646;8.568;2023-03-04T16:03:48;11.40;;;4.88;;
11827;SDS011;5971;49.646;8.568;2023-03-04T16:06:49;10.45;;;4.05;;
11827;SDS011;5971;49.646;8.568;2023-03-04T16:09:53;10.05;;;5.07;;
11827;SDS011;5971;49.646;8.568;2023-03-04T16:12:56;7.82;;;4.38;;
11827;SDS011;5971;49.646;8.568;2023-03-04T16:15:57;7.28;;;3.53;;
11827;SDS011;5971;49.646;8.568;2023-03-04T16:18:58;7.82;;;4.32;;
11827;SDS011;5971;49.646;8.568;2023-03-04T16:22:00;8.50;;;4.35;;
11827;SDS011;5971;49.646;8.568;2023-03-04T16:25:01;7.65;;;3.83;;
11827;SDS011;5971;49.646;8.568;2023-03-04T16:28:03;5.82;;;3.42;;
11827;SDS011;5971;49.646;8.568;2023-03-04T16:31:04;12.95;;;4.90;;
11827;SDS011;5971;49.646;8.568;2023-03-04T16:34:06;12.73;;;4.60;;
11827;SDS011;5971;49.646;8.568;2023-03-04T16:37:11;12.23;;;3.90;;
11827;SDS011;5971;49.646;8.568;2023-03-04T16:40:14;9.18;;;3.72;;
11827;SDS011;5971;49.646;8.568;2023-03-04T16:43:15;7.85;;;4.65;;
11827;SDS011;5971;49.646;8.568;2023-03-04T16:46:17;10.25;;;5.25;;
11827;SDS011;5971;49.646;8.568;2023-03-04T16:49:18;13.50;;;5.78;;
11827;SDS011;5971;49.646;8.568;2023-03-04T16:52:23;10.27;;;5.10;;
11827;SDS011;5971;49.646;8.568;2023-03-04T16:55:26;9.13;;;4.50;;
11827;SDS011;5971;49.646;8.568;2023-03-04T16:58:28;12.02;;;5.15;;
11827;SDS011;5971;49.646;8.568;2023-03-04T17:01:29;6.45;;;4.53;;
11827;SDS011;5971;49.646;8.568;2023-03-04T17:04:31;8.00;;;3.58;;
11827;SDS011;5971;49.646;8.568;2023-03-04T17:07:32;11.05;;;2.63;;
11827;SDS011;5971;49.646;8.568;2023-03-04T17:10:34;9.70;;;4.38;;
11827;SDS011;5971;49.646;8.568;2023-03-04T17:13:35;12.07;;;4.18;;
11827;SDS011;5971;49.646;8.568;2023-03-04T17:16:36;6.40;;;3.53;;
11827;SDS011;5971;49.646;8.568;2023-03-04T17:19:37;7.25;;;4.35;;
11827;SDS011;5971;49.646;8.568;2023-03-04T17:22:39;5.63;;;3.17;;
11827;SDS011;5971;49.646;8.568;2023-03-04T17:25:40;15.30;;;5.68;;
11827;SDS011;5971;49.646;8.568;2023-03-04T17:28:41;17.85;;;5.65;;
11827;SDS011;5971;49.646;8.568;2023-03-04T17:31:43;10.10;;;4.40;;
11827;SDS011;5971;49.646;8.568;2023-03-04T17:34:44;10.18;;;3.45;;
11827;SDS011;5971;49.646;8.568;2023-03-04T17:37:46;9.60;;;3.65;;
11827;SDS011;5971;49.646;8.568;2023-03-04T17:40:47;14.07;;;4.38;;
11827;SDS011;5971;49.646;8.568;2023-03-04T17:43:49;8.07;;;4.53;;
11827;SDS011;5971;49.646;8.568;2023-03-04T17:46:51;10.85;;;5.60;;
11827;SDS011;5971;49.646;8.568;2023-03-04T17:49:52;12.52;;;4.65;;
11827;SDS011;5971;49.646;8.568;2023-03-04T17:52:53;10.32;;;4.93;;
11827;SDS011;5971;49.646;8.568;2023-03-04T17:55:56;8.85;;;5.28;;
11827;SDS011;5971;49.646;8.568;2023-03-04T17:58:58;15.30;;;5.25;;
11827;SDS011;5971;49.646;8.568;2023-03-04T18:01:59;13.38;;;6.75;;
11827;SDS011;5971;49.646;8.568;2023-03-04T18:05:02;17.10;;;6.95;;
11827;SDS011;5971;49.646;8.568;2023-03-04T18:08:06;14.98;;;7.35;;
11827;SDS011;5971;49.646;8.568;2023-03-04T18:11:07;20.65;;;6.95;;
11827;SDS011;5971;49.646;8.568;2023-03-04T18:14:08;16.05;;;7.28;;
11827;SDS011;5971;49.646;8.568;2023-03-04T18:17:12;16.67;;;6.35;;
11827;SDS011;5971;49.646;8.568;2023-03-04T18:20:14;14.02;;;5.70;;
11827;SDS011;5971;49.646;8.568;2023-03-04T18:23:15;13.18;;;7.00;;
11827;SDS011;5971;49.646;8.568;2023-03-04T18:26:17;13.65;;;6.95;;
11827;SDS011;5971;49.646;8.568;2023-03-04T18:29:21;15.60;;;8.05;;
11827;SDS011;5971;49.646;8.568;2023-03-04T18:32:23;17.98;;;6.53;;
11827;SDS011;5971;49.646;8.568;2023-03-04T18:35:24;17.92;;;8.52;;
11827;SDS011;5971;49.646;8.568;2023-03-04T18:38:26;23.40;;;6.57;;
11827;SDS011;5971;49.646;8.568;2023-03-04T18:41:27;21.70;;;8.27;;
11827;SDS011;5971;49.646;8.568;2023-03-04T18:44:29;19.33;;;9.85;;
11827;SDS011;5971;49.646;8.568;2023-03-04T18:47:30;16.65;;;7.88;;
11827;SDS011;5971;49.646;8.568;2023-03-04T18:50:32;19.40;;;7.13;;
11827;SDS011;5971;49.646;8.568;2023-03-04T18:53:33;15.02;;;7.90;;
11827;SDS011;5971;49.646;8.568;2023-03-04T18:59:43;20.52;;;8.05;;
11827;SDS011;5971;49.646;8.568;2023-03-04T19:02:46;15.52;;;7.00;;
11827;SDS011;5971;49.646;8.568;2023-03-04T19:05:49;18.50;;;9.38;;
11827;SDS011;5971;49.646;8.568;2023-03-04T19:08:51;21.00;;;7.30;;
11827;SDS011;5971;49.646;8.568;2023-03-04T19:11:55;19.42;;;8.13;;
11827;SDS011;5971;49.646;8.568;2023-03-04T19:14:56;14.77;;;8.15;;
11827;SDS011;5971;49.646;8.568;2023-03-04T19:17:58;12.55;;;6.82;;
11827;SDS011;5971;49.646;8.568;2023-03-04T19:21:00;13.20;;;5.75;;
11827;SDS011;5971;49.646;8.568;2023-03-04T19:24:05;16.15;;;6.88;;
11827;SDS011;5971;49.646;8.568;2023-03-04T19:27:07;17.80;;;6.78;;
11827;SDS011;5971;49.646;8.568;2023-03-04T19:30:08;15.80;;;7.95;;
11827;SDS011;5971;49.646;8.568;2023-03-04T19:33:09;15.07;;;6.13;;
11827;SDS011;5971;49.646;8.568;2023-03-04T19:36:11;15.93;;;6.97;;
11827;SDS011;5971;49.646;8.568;2023-03-04T19:39:12;13.77;;;6.60;;
11827;SDS011;5971;49.646;8.568;2023-03-04T19:42:15;27.88;;;9.40;;
11827;SDS011;5971;49.646;8.568;2023-03-04T19:45:16;20.40;;;9.55;;
11827;SDS011;5971;49.646;8.568;2023-03-04T19:48:18;20.60;;;8.07;;